createdAt,value
2017-04-25T00:00:49.442Z,0
2017-04-25T00:01:50.030Z,0
2017-04-25T00:02:49.811Z,0
2017-04-25T00:03:49.841Z,0
2017-04-25T00:04:49.868Z,0
2017-04-25T00:05:49.265Z,0
2017-04-25T00:06:49.906Z,0
2017-04-25T00:07:49.648Z,0
2017-04-25T00:08:49.660Z,0
2017-04-25T00:09:50.001Z,0
2017-04-25T00:10:49.708Z,0
2017-04-25T00:11:49.417Z,0
2017-04-25T00:12:50.008Z,0
2017-04-25T00:13:50.104Z,0
2017-04-25T00:14:49.819Z,0
2017-04-25T00:15:50.166Z,0
2017-04-25T00:16:50.211Z,0
2017-04-25T00:17:50.157Z,0
2017-04-25T00:18:50.247Z,0
2017-04-25T00:19:50.266Z,0
2017-04-25T00:20:50.286Z,0
2017-04-25T00:21:50.322Z,0
2017-04-25T00:22:50.290Z,0
2017-04-25T00:23:50.063Z,0
2017-04-25T00:24:50.092Z,0
2017-04-25T00:25:50.433Z,0
2017-04-25T00:26:50.153Z,0
2017-04-25T00:27:50.735Z,0
2017-04-25T00:28:49.923Z,0
2017-04-25T00:29:50.220Z,0
2017-04-25T00:30:49.936Z,0
2017-04-25T00:31:49.992Z,0
2017-04-25T00:32:50.879Z,0
2017-04-25T00:33:50.352Z,0
2017-04-25T00:34:50.363Z,0
2017-04-25T00:35:50.707Z,0
2017-04-25T00:36:50.412Z,0
2017-04-25T00:37:51.012Z,0
2017-04-25T00:38:50.785Z,0
2017-04-25T00:39:50.811Z,0
2017-04-25T00:40:50.523Z,0
2017-04-25T00:41:50.880Z,0
2017-04-25T00:42:50.825Z,0
2017-04-25T00:43:50.613Z,0
2017-04-25T00:44:50.950Z,0
2017-04-25T00:45:50.340Z,0
2017-04-25T00:47:25.782Z,0
2017-04-25T00:47:51.298Z,0
2017-04-25T00:48:51.066Z,0
2017-04-25T00:49:51.081Z,0
2017-04-25T00:50:50.799Z,0
2017-04-25T00:51:51.140Z,0
2017-04-25T00:52:50.507Z,0
2017-04-25T00:53:50.563Z,0
2017-04-25T00:54:50.909Z,0
2017-04-25T00:55:51.249Z,0
2017-04-25T00:56:50.640Z,0
2017-04-25T00:57:51.237Z,0
2017-04-25T00:58:51.022Z,0
2017-04-25T00:59:50.718Z,0
2017-04-25T01:00:51.383Z,0
2017-04-25T01:01:51.085Z,0
2017-04-25T01:02:51.064Z,0
2017-04-25T01:03:51.466Z,0
2017-04-25T01:04:51.171Z,0
2017-04-25T01:05:51.203Z,0
2017-04-25T01:06:51.547Z,0
2017-04-25T01:07:51.820Z,0
2017-04-25T01:08:51.282Z,0
2017-04-25T01:09:51.629Z,0
2017-04-25T01:10:51.339Z,0
2017-04-25T01:11:51.367Z,0
2017-04-25T01:12:51.956Z,0
2017-04-25T01:13:51.729Z,0
2017-04-25T01:14:51.762Z,0
2017-04-25T01:15:51.789Z,0
2017-04-25T01:16:51.501Z,0
2017-04-25T01:17:52.104Z,0
2017-04-25T01:18:51.547Z,0
2017-04-25T01:19:51.901Z,0
2017-04-25T01:20:51.922Z,0
2017-04-25T01:21:51.943Z,0
2017-04-25T01:22:52.223Z,0
2017-04-25T01:23:52.011Z,0
2017-04-25T01:24:52.069Z,0
2017-04-25T01:25:52.065Z,0
2017-04-25T01:26:52.078Z,0
2017-04-25T01:27:52.363Z,0
2017-04-25T01:28:51.831Z,0
2017-04-25T01:29:52.160Z,0
2017-04-25T01:30:51.877Z,0
2017-04-25T01:31:52.219Z,0
2017-04-25T01:32:52.179Z,0
2017-04-25T01:33:52.267Z,0
2017-04-25T01:34:51.976Z,0
2017-04-25T01:35:52.009Z,0
2017-04-25T01:36:52.033Z,0
2017-04-25T01:37:52.305Z,0
2017-04-25T01:38:52.408Z,0
2017-04-25T01:39:52.427Z,0
2017-04-25T01:40:52.141Z,0
2017-04-25T01:41:51.849Z,0
2017-04-25T01:42:52.490Z,0
2017-04-25T01:43:52.227Z,0
2017-04-25T01:44:52.240Z,0
2017-04-25T01:45:52.277Z,0
2017-04-25T01:46:52.309Z,0
2017-04-25T01:47:52.909Z,0
2017-04-25T01:48:52.678Z,0
2017-04-25T01:49:52.700Z,0
2017-04-25T01:50:52.413Z,0
2017-04-25T01:51:52.441Z,0
2017-04-25T01:52:53.029Z,0
2017-04-25T01:53:52.503Z,0
2017-04-25T01:54:52.209Z,0
2017-04-25T01:55:52.858Z,0
2017-04-25T01:56:52.894Z,0
2017-04-25T01:57:52.605Z,0
2017-04-25T01:58:52.946Z,0
2017-04-25T01:59:52.662Z,0
2017-04-25T02:00:52.999Z,0
2017-04-25T02:01:52.397Z,0
2017-04-25T02:02:53.050Z,0
2017-04-25T02:03:53.083Z,0
2017-04-25T02:04:52.786Z,0
2017-04-25T02:05:52.799Z,0
2017-04-25T02:06:52.845Z,0
2017-04-25T02:07:52.873Z,0
2017-04-25T02:08:52.583Z,0
2017-04-25T02:09:53.243Z,0
2017-04-25T02:10:52.940Z,0
2017-04-25T02:11:53.288Z,0
2017-04-25T02:12:53.317Z,0
2017-04-25T02:13:53.032Z,0
2017-04-25T02:14:53.059Z,0
2017-04-25T02:15:52.763Z,0
2017-04-25T02:16:53.116Z,0
2017-04-25T02:17:53.461Z,0
2017-04-25T02:18:53.169Z,0
2017-04-25T02:19:53.185Z,0
2017-04-25T02:20:52.898Z,0
2017-04-25T02:21:53.240Z,0
2017-04-25T02:22:53.588Z,0
2017-04-25T02:23:53.614Z,0
2017-04-25T02:24:53.318Z,0
2017-04-25T02:25:53.342Z,0
2017-04-25T02:26:53.692Z,0
2017-04-25T02:27:53.416Z,0
2017-04-25T02:28:53.988Z,0
2017-04-25T02:29:53.452Z,0
2017-04-25T02:30:53.807Z,0
2017-04-25T02:31:53.811Z,0
2017-04-25T02:32:53.540Z,0
2017-04-25T02:33:53.816Z,0
2017-04-25T02:34:53.905Z,0
2017-04-25T02:35:53.938Z,0
2017-04-25T02:36:53.644Z,0
2017-04-25T02:37:53.677Z,0
2017-04-25T02:38:54.264Z,0
2017-04-25T02:39:54.045Z,0
2017-04-25T02:40:53.449Z,0
2017-04-25T02:41:54.082Z,0
2017-04-25T02:42:53.788Z,0
2017-04-25T02:43:54.404Z,0
2017-04-25T02:44:54.173Z,0
2017-04-25T02:45:54.200Z,0
2017-04-25T02:46:53.914Z,0
2017-04-25T02:47:53.939Z,0
2017-04-25T02:48:53.907Z,0
2017-04-25T02:49:54.304Z,0
2017-04-25T02:50:54.341Z,0
2017-04-25T02:51:54.046Z,0
2017-04-25T02:52:54.058Z,0
2017-04-25T02:53:54.669Z,0
2017-04-25T02:54:54.128Z,0
2017-04-25T02:55:54.473Z,0
2017-04-25T02:56:54.485Z,0
2017-04-25T02:57:54.518Z,0
2017-04-25T02:58:54.166Z,0
2017-04-25T02:59:54.264Z,0
2017-04-25T03:00:54.272Z,0
2017-04-25T03:01:54.322Z,0
2017-04-25T03:02:54.333Z,0
2017-04-25T03:03:54.947Z,0
2017-04-25T03:04:54.391Z,0
2017-04-25T03:05:54.418Z,0
2017-04-25T03:06:54.124Z,0
2017-04-25T03:07:54.470Z,0
2017-04-25T03:08:54.747Z,0
2017-04-25T03:09:54.849Z,0
2017-04-25T03:10:54.872Z,0
2017-04-25T03:11:54.581Z,0
2017-04-25T03:12:54.298Z,0
2017-04-25T03:13:55.196Z,0
2017-04-25T03:14:54.665Z,0
2017-04-25T03:15:55.001Z,0
2017-04-25T03:16:55.027Z,0
2017-04-25T03:17:54.741Z,0
2017-04-25T03:18:54.698Z,0
2017-04-25T03:19:55.111Z,0
2017-04-25T03:20:55.136Z,0
2017-04-25T03:21:54.843Z,0
2017-04-25T03:22:55.186Z,0
2017-04-25T03:23:55.159Z,0
2017-04-25T03:24:55.225Z,0
2017-04-25T03:25:54.950Z,0
2017-04-25T03:26:55.295Z,0
2017-04-25T03:27:55.003Z,0
2017-04-25T03:28:55.598Z,0
2017-04-25T03:29:55.367Z,0
2017-04-25T03:30:54.757Z,0
2017-04-25T03:31:55.430Z,0
2017-04-25T03:32:55.144Z,0
2017-04-25T03:33:55.737Z,0
2017-04-25T03:34:55.510Z,0
2017-04-25T03:35:55.534Z,0
2017-04-25T03:36:55.247Z,0
2017-04-25T03:37:55.593Z,0
2017-04-25T03:38:55.560Z,0
2017-04-25T03:39:55.314Z,0
2017-04-25T03:40:55.666Z,0
2017-04-25T03:41:55.692Z,0
2017-04-25T03:42:55.419Z,0
2017-04-25T03:43:56.023Z,0
2017-04-25T03:44:55.766Z,0
2017-04-25T03:45:55.167Z,0
2017-04-25T03:46:55.826Z,0
2017-04-25T03:47:55.848Z,0
2017-04-25T03:48:55.816Z,0
2017-04-25T03:49:55.274Z,0
2017-04-25T03:50:55.930Z,0
2017-04-25T03:51:55.639Z,0
2017-04-25T03:52:55.365Z,0
2017-04-25T03:53:55.947Z,0
2017-04-25T03:54:55.737Z,0
2017-04-25T03:55:56.061Z,0
2017-04-25T03:56:56.119Z,0
2017-04-25T03:57:55.797Z,0
2017-04-25T03:58:56.405Z,0
2017-04-25T03:59:55.860Z,0
2017-04-25T04:00:56.203Z,0
2017-04-25T04:01:56.232Z,0
2017-04-25T04:02:56.260Z,0
2017-04-25T04:03:56.537Z,4
2017-04-25T04:04:55.997Z,4
2017-04-25T04:05:56.013Z,4
2017-04-25T04:06:56.351Z,0
2017-04-25T04:07:56.072Z,4
2017-04-25T04:08:56.349Z,4
2017-04-25T04:09:56.129Z,4
2017-04-25T04:10:56.464Z,8
2017-04-25T04:11:56.178Z,4
2017-04-25T04:12:56.726Z,8
2017-04-25T04:13:56.804Z,8
2017-04-25T04:14:56.568Z,8
2017-04-25T04:15:55.977Z,12
2017-04-25T04:16:56.621Z,8
2017-04-25T04:17:56.338Z,12
2017-04-25T04:18:56.619Z,16
2017-04-25T04:19:56.705Z,20
2017-04-25T04:20:56.731Z,20
2017-04-25T04:21:56.749Z,20
2017-04-25T04:22:56.777Z,20
2017-04-25T04:23:56.753Z,24
2017-04-25T04:24:56.522Z,28
2017-04-25T04:25:56.860Z,32
2017-04-25T04:26:56.884Z,36
2017-04-25T04:27:56.917Z,44
2017-04-25T04:28:56.889Z,44
2017-04-25T04:29:56.337Z,48
2017-04-25T04:30:57.000Z,52
2017-04-25T04:31:56.704Z,56
2017-04-25T04:32:56.741Z,60
2017-04-25T04:33:57.014Z,64
2017-04-25T04:34:56.791Z,64
2017-04-25T04:35:56.815Z,72
2017-04-25T04:36:56.844Z,80
2017-04-25T04:37:57.170Z,80
2017-04-25T04:38:57.470Z,76
2017-04-25T04:39:56.287Z,96
2017-04-25T04:40:56.949Z,96
2017-04-25T04:41:57.296Z,88
2017-04-25T04:42:57.001Z,88
2017-04-25T04:43:57.600Z,104
2017-04-25T04:44:57.063Z,100
2017-04-25T04:45:57.087Z,116
2017-04-25T04:46:56.797Z,128
2017-04-25T04:47:57.445Z,136
2017-04-25T04:48:57.410Z,180
2017-04-25T04:49:57.505Z,204
2017-04-25T04:50:56.899Z,204
2017-04-25T04:51:57.555Z,204
2017-04-25T04:52:57.615Z,196
2017-04-25T04:53:57.861Z,228
2017-04-25T04:54:57.638Z,276
2017-04-25T04:55:57.030Z,280
2017-04-25T04:56:57.372Z,268
2017-04-25T04:57:57.717Z,248
2017-04-25T04:58:57.996Z,260
2017-04-25T04:59:57.774Z,312
2017-04-25T05:00:57.481Z,328
2017-04-25T05:01:57.825Z,324
2017-04-25T05:02:57.535Z,348
2017-04-25T05:03:57.812Z,360
2017-04-25T05:04:57.586Z,372
2017-04-25T05:05:57.618Z,392
2017-04-25T05:06:57.642Z,416
2017-04-25T05:07:57.988Z,428
2017-04-25T05:08:58.255Z,448
2017-04-25T05:09:58.035Z,472
2017-04-25T05:10:57.750Z,492
2017-04-25T05:11:57.463Z,516
2017-04-25T05:12:57.801Z,520
2017-04-25T05:13:58.403Z,528
2017-04-25T05:14:58.161Z,520
2017-04-25T05:15:58.202Z,512
2017-04-25T05:16:58.236Z,516
2017-04-25T05:17:58.260Z,520
2017-04-25T05:18:57.959Z,528
2017-04-25T05:19:57.976Z,536
2017-04-25T05:20:58.010Z,536
2017-04-25T05:21:57.733Z,552
2017-04-25T05:22:58.062Z,556
2017-04-25T05:23:58.403Z,580
2017-04-25T05:24:58.441Z,588
2017-04-25T05:25:58.145Z,592
2017-04-25T05:26:58.203Z,612
2017-04-25T05:27:58.527Z,664
2017-04-25T05:28:58.543Z,700
2017-04-25T05:29:58.512Z,720
2017-04-25T05:30:58.598Z,728
2017-04-25T05:31:58.632Z,760
2017-04-25T05:32:58.658Z,788
2017-04-25T05:33:58.372Z,804
2017-04-25T05:34:58.967Z,796
2017-04-25T05:35:58.725Z,796
2017-04-25T05:36:58.441Z,812
2017-04-25T05:37:58.467Z,828
2017-04-25T05:38:58.179Z,812
2017-04-25T05:39:59.084Z,816
2017-04-25T05:40:58.848Z,800
2017-04-25T05:41:58.888Z,756
2017-04-25T05:42:58.610Z,692
2017-04-25T05:43:58.952Z,696
2017-04-25T05:44:58.903Z,728
2017-04-25T05:45:58.365Z,772
2017-04-25T05:46:59.033Z,844
2017-04-25T05:47:58.729Z,968
2017-04-25T05:48:59.075Z,1252
2017-04-25T05:49:59.360Z,1268
2017-04-25T05:50:59.144Z,1156
2017-04-25T05:51:59.157Z,1140
2017-04-25T05:52:59.185Z,964
2017-04-25T05:53:58.898Z,908
2017-04-25T05:54:58.858Z,908
2017-04-25T05:55:59.283Z,880
2017-04-25T05:56:58.972Z,912
2017-04-25T05:57:59.326Z,892
2017-04-25T05:58:59.346Z,872
2017-04-25T05:59:59.614Z,964
2017-04-25T06:00:59.396Z,1072
2017-04-25T06:01:58.787Z,1008
2017-04-25T06:02:59.131Z,940
2017-04-25T06:03:59.165Z,964
2017-04-25T06:04:59.759Z,872
2017-04-25T06:05:59.218Z,840
2017-04-25T06:06:59.259Z,908
2017-04-25T06:07:59.604Z,968
2017-04-25T06:08:58.969Z,1012
2017-04-25T06:09:59.566Z,1064
2017-04-25T06:10:59.646Z,1056
2017-04-25T06:11:59.656Z,1176
2017-04-25T06:12:59.685Z,1428
2017-04-25T06:13:59.433Z,1432
2017-04-25T06:14:59.989Z,1192
2017-04-25T06:15:59.126Z,1152
2017-04-25T06:16:59.478Z,1276
2017-04-25T06:17:59.860Z,1312
2017-04-25T06:18:59.833Z,1276
2017-04-25T06:19:59.489Z,1328
2017-04-25T06:20:59.274Z,1328
2017-04-25T06:21:59.923Z,1264
2017-04-25T06:22:59.635Z,1016
2017-04-25T06:23:59.664Z,916
2017-04-25T06:25:00.249Z,1092
2017-04-25T06:25:59.714Z,1244
2017-04-25T06:27:00.051Z,1424
2017-04-25T06:27:59.767Z,1592
2017-04-25T06:28:59.479Z,1612
2017-04-25T06:29:59.768Z,1532
2017-04-25T06:31:00.160Z,1564
2017-04-25T06:31:59.570Z,1588
2017-04-25T06:33:00.214Z,1480
2017-04-25T06:33:59.622Z,1440
2017-04-25T06:35:00.209Z,1492
2017-04-25T06:36:00.297Z,1380
2017-04-25T06:37:00.009Z,1240
2017-04-25T06:38:00.353Z,1296
2017-04-25T06:39:00.060Z,1172
2017-04-25T06:40:00.652Z,1544
2017-04-25T06:41:00.430Z,1844
2017-04-25T06:41:59.834Z,1832
2017-04-25T06:43:00.165Z,1756
2017-04-25T06:44:00.199Z,1480
2017-04-25T06:45:00.471Z,1564
2017-04-25T06:46:00.560Z,1548
2017-04-25T06:46:59.962Z,1464
2017-04-25T06:48:00.002Z,1480
2017-04-25T06:49:00.642Z,1616
2017-04-25T06:50:00.642Z,1860
2017-04-25T06:51:00.381Z,1876
2017-04-25T06:52:00.725Z,1784
2017-04-25T06:53:00.750Z,1732
2017-04-25T06:54:00.782Z,1632
2017-04-25T06:55:00.747Z,1456
2017-04-25T06:56:00.832Z,1288
2017-04-25T06:57:00.857Z,1380
2017-04-25T06:58:00.894Z,1624
2017-04-25T06:59:00.284Z,1508
2017-04-25T07:00:01.187Z,1340
2017-04-25T07:01:00.656Z,1632
2017-04-25T07:02:00.683Z,1528
2017-04-25T07:03:01.012Z,1496
2017-04-25T07:04:00.738Z,1516
2017-04-25T07:05:01.107Z,1540
2017-04-25T07:06:00.787Z,1588
2017-04-25T07:07:01.128Z,1568
2017-04-25T07:08:01.161Z,1712
2017-04-25T07:09:00.862Z,1932
2017-04-25T07:10:00.886Z,2036
2017-04-25T07:11:00.922Z,2064
2017-04-25T07:12:01.260Z,2096
2017-04-25T07:13:01.000Z,2204
2017-04-25T07:14:01.309Z,1968
2017-04-25T07:15:01.338Z,1920
2017-04-25T07:16:01.362Z,1696
2017-04-25T07:17:01.079Z,1516
2017-04-25T07:18:01.100Z,1700
2017-04-25T07:19:01.449Z,2144
2017-04-25T07:20:01.474Z,2212
2017-04-25T07:21:01.499Z,1560
2017-04-25T07:22:01.523Z,1200
2017-04-25T07:23:01.249Z,908
2017-04-25T07:24:01.580Z,716
2017-04-25T07:25:01.620Z,844
2017-04-25T07:26:01.641Z,924
2017-04-25T07:27:01.350Z,836
2017-04-25T07:28:01.700Z,720
2017-04-25T07:29:01.717Z,712
2017-04-25T07:30:01.433Z,640
2017-04-25T07:31:02.027Z,572
2017-04-25T07:32:01.487Z,572
2017-04-25T07:33:01.515Z,608
2017-04-25T07:34:01.540Z,592
2017-04-25T07:35:01.600Z,496
2017-04-25T07:36:02.150Z,480
2017-04-25T07:37:01.926Z,484
2017-04-25T07:38:01.956Z,444
2017-04-25T07:39:01.981Z,380
2017-04-25T07:40:01.706Z,364
2017-04-25T07:41:01.969Z,352
2017-04-25T07:42:02.070Z,344
2017-04-25T07:43:01.782Z,336
2017-04-25T07:44:01.803Z,316
2017-04-25T07:45:02.141Z,312
2017-04-25T07:46:02.109Z,316
2017-04-25T07:47:02.190Z,272
2017-04-25T07:48:02.242Z,244
2017-04-25T07:49:02.253Z,248
2017-04-25T07:50:01.662Z,292
2017-04-25T07:51:02.233Z,244
2017-04-25T07:52:02.015Z,224
2017-04-25T07:53:01.734Z,276
2017-04-25T07:54:01.755Z,300
2017-04-25T07:55:02.416Z,288
2017-04-25T07:56:02.377Z,268
2017-04-25T07:57:02.462Z,256
2017-04-25T07:58:02.173Z,240
2017-04-25T07:59:02.523Z,316
2017-04-25T08:00:02.227Z,320
2017-04-25T08:01:02.508Z,308
2017-04-25T08:02:02.280Z,360
2017-04-25T08:03:02.317Z,328
2017-04-25T08:04:02.343Z,340
2017-04-25T08:05:02.682Z,352
2017-04-25T08:06:02.951Z,336
2017-04-25T08:07:02.421Z,304
2017-04-25T08:08:02.753Z,364
2017-04-25T08:09:02.475Z,356
2017-04-25T08:10:02.822Z,392
2017-04-25T08:11:03.093Z,420
2017-04-25T08:12:02.868Z,604
2017-04-25T08:13:02.887Z,680
2017-04-25T08:14:02.607Z,628
2017-04-25T08:15:02.943Z,496
2017-04-25T08:16:03.219Z,560
2017-04-25T08:17:03.001Z,656
2017-04-25T08:18:02.706Z,608
2017-04-25T08:19:03.054Z,700
2017-04-25T08:20:03.082Z,776
2017-04-25T08:21:03.404Z,732
2017-04-25T08:22:03.137Z,716
2017-04-25T08:23:03.160Z,740
2017-04-25T08:24:03.175Z,728
2017-04-25T08:25:03.199Z,704
2017-04-25T08:26:03.484Z,680
2017-04-25T08:27:03.265Z,640
2017-04-25T08:28:03.297Z,640
2017-04-25T08:29:03.314Z,664
2017-04-25T08:30:03.028Z,744
2017-04-25T08:31:03.627Z,832
2017-04-25T08:32:03.088Z,868
2017-04-25T08:33:03.117Z,880
2017-04-25T08:34:03.446Z,816
2017-04-25T08:35:03.478Z,776
2017-04-25T08:36:03.490Z,736
2017-04-25T08:37:03.535Z,756
2017-04-25T08:38:03.557Z,708
2017-04-25T08:39:03.293Z,680
2017-04-25T08:40:03.606Z,688
2017-04-25T08:41:05.385Z,704
2017-04-25T08:42:03.366Z,688
2017-04-25T08:43:03.384Z,664
2017-04-25T08:44:03.720Z,680
2017-04-25T08:45:03.728Z,824
2017-04-25T08:46:03.461Z,1092
2017-04-25T08:47:03.790Z,1272
2017-04-25T08:48:03.515Z,1360
2017-04-25T08:49:03.849Z,1364
2017-04-25T08:50:03.561Z,1384
2017-04-25T08:51:03.900Z,1404
2017-04-25T08:52:03.307Z,1520
2017-04-25T08:53:03.955Z,1464
2017-04-25T08:54:03.667Z,1364
2017-04-25T08:55:03.694Z,1244
2017-04-25T08:56:04.025Z,1228
2017-04-25T08:57:04.063Z,1160
2017-04-25T08:58:04.087Z,1072
2017-04-25T08:59:03.799Z,1116
2017-04-25T09:00:03.555Z,1116
2017-04-25T09:01:03.545Z,1092
2017-04-25T09:02:04.441Z,1052
2017-04-25T09:03:03.590Z,1084
2017-04-25T09:04:03.931Z,1084
2017-04-25T09:05:03.952Z,932
2017-04-25T09:06:03.986Z,912
2017-04-25T09:07:04.582Z,1004
2017-04-25T09:08:04.047Z,1128
2017-04-25T09:09:04.379Z,1188
2017-04-25T09:10:04.095Z,1068
2017-04-25T09:11:03.804Z,1084
2017-04-25T09:12:03.774Z,1196
2017-04-25T09:13:04.494Z,1200
2017-04-25T09:14:03.887Z,1116
2017-04-25T09:15:03.922Z,1148
2017-04-25T09:16:04.244Z,1000
2017-04-25T09:17:04.229Z,1256
2017-04-25T09:18:04.609Z,1308
2017-04-25T09:19:04.644Z,1188
2017-04-25T09:20:04.666Z,1244
2017-04-25T09:21:04.692Z,1340
2017-04-25T09:22:04.660Z,1404
2017-04-25T09:23:04.437Z,1668
2017-04-25T09:24:04.789Z,1720
2017-04-25T09:25:04.491Z,1552
2017-04-25T09:26:04.203Z,1504
2017-04-25T09:27:04.788Z,1824
2017-04-25T09:28:04.881Z,1804
2017-04-25T09:29:04.910Z,1800
2017-04-25T09:30:04.627Z,1572
2017-04-25T09:31:04.963Z,1592
2017-04-25T09:32:05.243Z,1588
2017-04-25T09:33:05.018Z,1356
2017-04-25T09:34:05.043Z,1328
2017-04-25T09:35:05.069Z,1324
2017-04-25T09:36:05.091Z,1192
2017-04-25T09:37:04.751Z,1280
2017-04-25T09:38:05.140Z,1424
2017-04-25T09:39:04.858Z,1456
2017-04-25T09:40:05.206Z,1548
2017-04-25T09:41:04.909Z,1580
2017-04-25T09:42:05.503Z,1296
2017-04-25T09:43:04.965Z,1240
2017-04-25T09:44:05.311Z,1304
2017-04-25T09:45:05.017Z,1512
2017-04-25T09:46:05.358Z,1540
2017-04-25T09:47:05.331Z,1596
2017-04-25T09:48:05.096Z,1768
2017-04-25T09:49:05.441Z,1908
2017-04-25T09:50:04.525Z,1872
2017-04-25T09:51:05.502Z,1696
2017-04-25T09:52:05.462Z,1680
2017-04-25T09:53:05.546Z,1752
2017-04-25T09:54:05.262Z,1684
2017-04-25T09:55:05.280Z,1576
2017-04-25T09:56:05.002Z,1676
2017-04-25T09:57:05.911Z,1752
2017-04-25T09:58:05.679Z,1728
2017-04-25T09:59:05.708Z,1812
2017-04-25T10:00:05.729Z,1820
2017-04-25T10:01:05.755Z,1812
2017-04-25T10:02:06.081Z,1724
2017-04-25T10:03:05.811Z,1848
2017-04-25T10:04:05.845Z,1972
2017-04-25T10:05:05.864Z,1880
2017-04-25T10:06:05.893Z,1884
2017-04-25T10:07:06.166Z,1776
2017-04-25T10:08:05.975Z,1748
2017-04-25T10:09:05.968Z,1760
2017-04-25T10:10:05.997Z,1664
2017-04-25T10:11:06.030Z,1472
2017-04-25T10:12:06.298Z,1284
2017-04-25T10:13:05.762Z,1336
2017-04-25T10:14:06.100Z,1560
2017-04-25T10:15:05.811Z,1584
2017-04-25T10:16:06.158Z,1596
2017-04-25T10:17:06.436Z,1548
2017-04-25T10:18:05.898Z,1548
2017-04-25T10:19:05.927Z,1576
2017-04-25T10:20:05.961Z,1612
2017-04-25T10:21:06.288Z,1596
2017-04-25T10:22:06.565Z,1584
2017-04-25T10:23:06.031Z,1576
2017-04-25T10:24:06.055Z,1644
2017-04-25T10:25:06.106Z,1756
2017-04-25T10:26:05.791Z,1940
2017-04-25T10:27:06.385Z,2020
2017-04-25T10:28:06.473Z,1964
2017-04-25T10:29:06.191Z,1876
2017-04-25T10:30:06.526Z,1824
2017-04-25T10:31:06.563Z,1780
2017-04-25T10:32:06.255Z,1756
2017-04-25T10:33:06.292Z,1752
2017-04-25T10:34:06.633Z,1764
2017-04-25T10:35:06.347Z,1688
2017-04-25T10:36:06.679Z,1560
2017-04-25T10:37:06.645Z,1548
2017-04-25T10:38:06.741Z,1704
2017-04-25T10:39:06.778Z,1868
2017-04-25T10:40:06.166Z,1868
2017-04-25T10:41:06.818Z,1640
2017-04-25T10:42:06.463Z,1588
2017-04-25T10:43:06.568Z,1576
2017-04-25T10:44:06.581Z,1716
2017-04-25T10:45:06.615Z,1808
2017-04-25T10:46:06.323Z,1800
2017-04-25T10:47:07.276Z,1804
2017-04-25T10:48:06.371Z,1808
2017-04-25T10:49:06.413Z,1768
2017-04-25T10:50:06.748Z,1804
2017-04-25T10:51:07.082Z,1804
2017-04-25T10:52:07.120Z,1740
2017-04-25T10:53:07.133Z,1728
2017-04-25T10:54:07.161Z,1760
2017-04-25T10:55:07.189Z,1816
2017-04-25T10:56:07.224Z,1820
2017-04-25T10:57:06.923Z,1804
2017-04-25T10:58:07.259Z,1760
2017-04-25T10:59:06.987Z,1816
2017-04-25T11:00:07.332Z,1896
2017-04-25T11:01:07.350Z,1956
2017-04-25T11:02:07.366Z,1908
2017-04-25T11:03:07.650Z,1724
2017-04-25T11:04:07.432Z,1596
2017-04-25T11:05:07.460Z,1544
2017-04-25T11:06:07.477Z,1476
2017-04-25T11:07:06.894Z,1472
2017-04-25T11:08:07.466Z,1484
2017-04-25T11:09:06.936Z,1460
2017-04-25T11:10:07.585Z,1412
2017-04-25T11:11:07.621Z,1412
2017-04-25T11:12:07.642Z,1540
2017-04-25T11:13:07.618Z,1776
2017-04-25T11:14:07.383Z,1984
2017-04-25T11:15:07.404Z,1980
2017-04-25T11:16:07.449Z,1844
2017-04-25T11:17:07.768Z,1728
2017-04-25T11:18:07.427Z,1692
2017-04-25T11:19:07.829Z,1836
2017-04-25T11:20:07.844Z,1900
2017-04-25T11:21:07.567Z,1888
2017-04-25T11:22:07.283Z,1888
2017-04-25T11:23:08.178Z,1728
2017-04-25T11:24:07.958Z,1704
2017-04-25T11:25:07.680Z,1712
2017-04-25T11:26:08.024Z,1668
2017-04-25T11:27:08.046Z,1632
2017-04-25T11:28:08.004Z,1676
2017-04-25T11:29:08.090Z,1748
2017-04-25T11:30:07.523Z,1860
2017-04-25T11:31:08.144Z,1940
2017-04-25T11:32:08.172Z,2048
2017-04-25T11:33:08.698Z,2128
2017-04-25T11:34:08.224Z,2076
2017-04-25T11:35:08.252Z,2064
2017-04-25T11:36:08.316Z,2104
2017-04-25T11:37:08.305Z,2144
2017-04-25T11:38:08.598Z,2184
2017-04-25T11:39:08.355Z,2332
2017-04-25T11:40:08.379Z,2460
2017-04-25T11:41:08.425Z,2620
2017-04-25T11:42:08.441Z,2812
2017-04-25T11:43:08.724Z,2772
2017-04-25T11:44:08.487Z,2632
2017-04-25T11:45:08.511Z,2812
2017-04-25T11:46:08.545Z,2952
2017-04-25T11:47:08.254Z,3088
2017-04-25T11:48:08.840Z,3164
2017-04-25T11:49:08.629Z,3180
2017-04-25T11:50:08.342Z,3136
2017-04-25T11:51:08.047Z,3092
2017-04-25T11:52:08.704Z,2972
2017-04-25T11:53:08.108Z,2828
2017-04-25T11:54:08.444Z,2788
2017-04-25T11:55:08.149Z,2756
2017-04-25T11:56:08.811Z,2632
2017-04-25T11:57:08.834Z,2612
2017-04-25T11:58:08.885Z,2700
2017-04-25T11:59:08.900Z,2816
2017-04-25T12:00:08.917Z,2892
2017-04-25T12:01:08.951Z,2880
2017-04-25T12:02:08.659Z,2784
2017-04-25T12:03:08.678Z,2708
2017-04-25T12:04:08.953Z,2608
2017-04-25T12:05:08.729Z,2404
2017-04-25T12:06:08.134Z,2248
2017-04-25T12:07:08.479Z,2052
2017-04-25T12:08:09.127Z,1904
2017-04-25T12:09:09.088Z,1884
2017-04-25T12:10:09.185Z,1936
2017-04-25T12:11:08.893Z,2020
2017-04-25T12:12:08.926Z,2116
2017-04-25T12:13:08.953Z,2196
2017-04-25T12:14:09.225Z,2288
2017-04-25T12:15:09.007Z,2364
2017-04-25T12:16:09.337Z,2420
2017-04-25T12:17:09.367Z,2444
2017-04-25T12:18:09.079Z,2500
2017-04-25T12:19:09.677Z,2540
2017-04-25T12:20:09.448Z,2604
2017-04-25T12:21:08.841Z,2608
2017-04-25T12:22:09.507Z,2544
2017-04-25T12:23:09.527Z,2528
2017-04-25T12:24:09.498Z,2584
2017-04-25T12:25:09.582Z,2672
2017-04-25T12:26:09.606Z,2712
2017-04-25T12:27:09.631Z,2668
2017-04-25T12:28:09.345Z,2636
2017-04-25T12:29:09.938Z,2744
2017-04-25T12:30:09.720Z,2876
2017-04-25T12:31:09.420Z,2924
2017-04-25T12:32:09.463Z,2952
2017-04-25T12:33:09.473Z,2952
2017-04-25T12:34:10.071Z,2960
2017-04-25T12:35:09.848Z,3004
2017-04-25T12:36:09.560Z,3124
2017-04-25T12:37:09.593Z,3108
2017-04-25T12:38:09.927Z,3080
2017-04-25T12:39:10.197Z,3072
2017-04-25T12:40:09.986Z,3204
2017-04-25T12:41:10.012Z,3560
2017-04-25T12:42:09.717Z,3828
2017-04-25T12:43:10.078Z,3856
2017-04-25T12:44:09.715Z,4044
2017-04-25T12:45:09.800Z,4220
2017-04-25T12:46:10.140Z,4432
2017-04-25T12:47:09.544Z,4412
2017-04-25T12:48:10.189Z,4080
2017-04-25T12:49:10.470Z,3696
2017-04-25T12:50:09.644Z,3228
2017-04-25T12:51:10.272Z,2972
2017-04-25T12:52:09.676Z,2836
2017-04-25T12:53:10.010Z,2756
2017-04-25T12:54:10.305Z,2928
2017-04-25T12:55:10.384Z,3052
2017-04-25T12:56:10.090Z,3016
2017-04-25T12:57:10.431Z,3084
2017-04-25T12:58:10.140Z,3228
2017-04-25T12:59:10.431Z,3360
2017-04-25T13:00:10.202Z,3380
2017-04-25T13:01:10.543Z,3432
2017-04-25T13:02:10.257Z,3312
2017-04-25T13:03:10.589Z,2980
2017-04-25T13:04:10.866Z,2924
2017-04-25T13:05:10.652Z,2860
2017-04-25T13:06:10.358Z,2852
2017-04-25T13:07:10.704Z,3224
2017-04-25T13:08:10.728Z,3156
2017-04-25T13:09:11.016Z,3704
2017-04-25T13:10:10.786Z,3780
2017-04-25T13:11:10.802Z,4148
2017-04-25T13:12:10.532Z,4116
2017-04-25T13:13:10.856Z,4084
2017-04-25T13:14:11.136Z,4508
2017-04-25T13:15:10.602Z,4452
2017-04-25T13:16:10.938Z,4152
2017-04-25T13:17:10.966Z,4180
2017-04-25T13:18:10.684Z,4388
2017-04-25T13:19:11.268Z,4492
2017-04-25T13:20:10.740Z,4236
2017-04-25T13:21:10.762Z,4224
2017-04-25T13:22:10.795Z,4512
2017-04-25T13:23:11.135Z,5440
2017-04-25T13:24:10.524Z,5720
2017-04-25T13:25:11.185Z,5532
2017-04-25T13:26:11.209Z,5544
2017-04-25T13:27:11.234Z,6504
2017-04-25T13:28:11.268Z,7456
2017-04-25T13:29:10.988Z,8236
2017-04-25T13:30:11.316Z,8060
2017-04-25T13:31:11.338Z,9296
2017-04-25T13:32:11.366Z,10180
2017-04-25T13:33:10.766Z,10440
2017-04-25T13:34:11.414Z,9168
2017-04-25T13:35:11.454Z,9392
2017-04-25T13:36:11.488Z,8796
2017-04-25T13:37:11.509Z,8796
2017-04-25T13:38:10.597Z,9104
2017-04-25T13:39:11.245Z,8312
2017-04-25T13:40:11.272Z,8260
2017-04-25T13:41:11.624Z,10216
2017-04-25T13:42:11.320Z,9112
2017-04-25T13:43:11.666Z,8896
2017-04-25T13:44:11.383Z,7356
2017-04-25T13:45:11.716Z,7612
2017-04-25T13:46:11.748Z,9260
2017-04-25T13:47:11.456Z,8948
2017-04-25T13:48:11.489Z,8576
2017-04-25T13:49:11.521Z,9828
2017-04-25T13:50:11.538Z,15048
2017-04-25T13:51:11.592Z,15708
2017-04-25T13:52:11.907Z,12216